Time;durP1;ratioP1;P1;durP2;ratioP2;P2;SDS_P1;SDS_P2;PMS_P1;PMS_P2;Temp;Humidity;BMP_temperature;BMP_pressure;BME280_temperature;BME280_humidity;BME280_pressure;Samples;Min_cycle;Max_cycle;Signal;HPM_P1;HPM_P2
2023/11/03 00:00:44;;;;;;;5.20;1.13;;;;;;;;;;5920412;29;20051;-84
2023/11/03 00:03:46;;;;;;;10.15;1.88;;;;;;;;;;5933049;29;20058;-84
2023/11/03 00:06:49;;;;;;;4.45;0.95;;;;;;;;;;5906982;29;20055;-84
2023/11/03 00:09:51;;;;;;;3.95;1.00;;;;;;;;;;5932770;29;20066;-84
2023/11/03 00:12:53;;;;;;;4.43;0.98;;;;;;;;;;5932415;29;20160;-84
2023/11/03 00:15:54;;;;;;;6.07;1.20;;;;;;;;;;5921547;29;20051;-84
2023/11/03 00:18:59;;;;;;;4.55;1.10;;;;;;;;;;5928816;29;20047;-84
2023/11/03 00:22:03;;;;;;;4.32;1.30;;;;;;;;;;5917484;29;20047;-85
2023/11/03 00:25:11;;;;;;;5.63;1.30;;;;;;;;;;5915063;29;20919;-84
2023/11/03 00:28:13;;;;;;;6.03;1.10;;;;;;;;;;5923903;29;20443;-84
2023/11/03 00:31:15;;;;;;;4.90;1.02;;;;;;;;;;5915450;29;20048;-86
2023/11/03 00:34:18;;;;;;;5.13;1.00;;;;;;;;;;5922968;29;20504;-84
2023/11/03 00:37:19;;;;;;;4.60;0.98;;;;;;;;;;5932901;29;20456;-83
2023/11/03 00:40:21;;;;;;;2.72;1.05;;;;;;;;;;5928120;29;20062;-84
2023/11/03 00:43:23;;;;;;;5.97;1.45;;;;;;;;;;5917637;29;20066;-84
2023/11/03 00:46:25;;;;;;;3.83;0.93;;;;;;;;;;5918655;29;20054;-85
2023/11/03 00:49:27;;;;;;;4.25;1.20;;;;;;;;;;5920479;29;20055;-83
2023/11/03 00:52:29;;;;;;;4.72;1.10;;;;;;;;;;5928506;29;20058;-84
2023/11/03 00:55:30;;;;;;;4.90;0.90;;;;;;;;;;5920835;29;20051;-84
2023/11/03 00:58:35;;;;;;;4.30;1.35;;;;;;;;;;5938902;29;20131;-84
2023/11/03 01:01:38;;;;;;;4.78;0.85;;;;;;;;;;5920763;29;20127;-84
2023/11/03 01:04:40;;;;;;;3.05;0.90;;;;;;;;;;5931531;29;20554;-85
2023/11/03 01:07:42;;;;;;;3.65;1.20;;;;;;;;;;5932650;29;20089;-85
2023/11/03 01:10:44;;;;;;;4.63;1.00;;;;;;;;;;5917087;29;20052;-84
2023/11/03 01:13:46;;;;;;;4.80;1.20;;;;;;;;;;5931276;29;20055;-84
2023/11/03 01:16:49;;;;;;;3.47;0.93;;;;;;;;;;5913370;29;20055;-83
2023/11/03 01:19:51;;;;;;;;;;;;;;;;;;5920894;29;20427;-85
2023/11/03 01:22:52;;;;;;;6.93;1.00;;;;;;;;;;5933680;29;19932;-84
2023/11/03 01:25:54;;;;;;;4.68;1.20;;;;;;;;;;5925560;29;20052;-86
2023/11/03 01:28:57;;;;;;;6.63;1.17;;;;;;;;;;5920993;29;20058;-84
2023/11/03 01:31:59;;;;;;;4.90;0.80;;;;;;;;;;5929641;29;20054;-85
2023/11/03 01:35:01;;;;;;;4.65;1.00;;;;;;;;;;5932999;29;20058;-84
2023/11/03 01:38:04;;;;;;;4.40;1.00;;;;;;;;;;5925860;29;20047;-84
2023/11/03 01:41:07;;;;;;;5.50;1.13;;;;;;;;;;5936277;29;20058;-84
2023/11/03 01:44:11;;;;;;;6.15;0.95;;;;;;;;;;5929755;29;20107;-86
2023/11/03 01:47:14;;;;;;;7.50;0.80;;;;;;;;;;5911577;29;20043;-84
2023/11/03 01:50:16;;;;;;;5.20;1.00;;;;;;;;;;5928229;29;20058;-84
2023/11/03 01:53:18;;;;;;;2.75;1.00;;;;;;;;;;5910289;29;20048;-84
2023/11/03 01:56:20;;;;;;;3.67;1.00;;;;;;;;;;5900268;29;20062;-84
2023/11/03 01:59:22;;;;;;;4.03;1.10;;;;;;;;;;5914140;29;20055;-84
2023/11/03 02:02:27;;;;;;;5.47;0.90;;;;;;;;;;5925857;29;20055;-84
2023/11/03 02:05:29;;;;;;;6.78;0.90;;;;;;;;;;5957180;24;20054;-82
2023/11/03 02:08:31;;;;;;;6.03;0.90;;;;;;;;;;5917732;29;20518;-81
2023/11/03 02:11:32;;;;;;;5.25;0.90;;;;;;;;;;5924612;29;20075;-83
2023/11/03 02:14:34;;;;;;;6.38;1.10;;;;;;;;;;5935724;29;20171;-82
2023/11/03 02:17:37;;;;;;;5.03;1.00;;;;;;;;;;5937773;29;20058;-83
2023/11/03 02:20:39;;;;;;;5.15;1.00;;;;;;;;;;5946839;29;20073;-82
2023/11/03 02:23:41;;;;;;;3.75;1.17;;;;;;;;;;5930762;29;20344;-82
2023/11/03 02:26:44;;;;;;;3.28;0.88;;;;;;;;;;5935526;29;20051;-81
2023/11/03 02:29:46;;;;;;;3.25;0.85;;;;;;;;;;5935091;29;20062;-83
2023/11/03 02:32:48;;;;;;;2.70;1.08;;;;;;;;;;5918702;29;20063;-82
2023/11/03 02:35:50;;;;;;;3.47;0.70;;;;;;;;;;5952980;29;20357;-82
2023/11/03 02:38:54;;;;;;;6.13;0.90;;;;;;;;;;5935724;29;20043;-82
2023/11/03 02:41:55;;;;;;;4.78;0.93;;;;;;;;;;5928183;29;20061;-82
2023/11/03 02:44:58;;;;;;;6.07;0.90;;;;;;;;;;5933453;29;20134;-83
2023/11/03 02:48:00;;;;;;;5.03;1.00;;;;;;;;;;5932026;29;20047;-83
2023/11/03 02:51:03;;;;;;;5.90;0.93;;;;;;;;;;5933144;29;20055;-83
2023/11/03 02:54:07;;;;;;;4.50;1.05;;;;;;;;;;5941916;29;20501;-81
2023/11/03 02:57:09;;;;;;;3.75;1.00;;;;;;;;;;5926471;29;20385;-83
2023/11/03 03:00:12;;;;;;;2.40;0.90;;;;;;;;;;5942010;29;20059;-82
2023/11/03 03:03:14;;;;;;;5.25;0.95;;;;;;;;;;5934238;29;20051;-83
2023/11/03 03:06:16;;;;;;;5.78;1.13;;;;;;;;;;5924170;29;20119;-82
2023/11/03 03:09:18;;;;;;;4.10;1.30;;;;;;;;;;5920671;29;20070;-83
2023/11/03 03:12:20;;;;;;;5.28;1.13;;;;;;;;;;5935177;29;20051;-86
2023/11/03 03:15:22;;;;;;;2.22;1.00;;;;;;;;;;5943223;29;20054;-85
2023/11/03 03:18:24;;;;;;;4.18;1.27;;;;;;;;;;5941044;29;20058;-85
2023/11/03 03:21:25;;;;;;;4.50;0.70;;;;;;;;;;5958712;29;20042;-85
2023/11/03 03:24:27;;;;;;;5.13;0.90;;;;;;;;;;5958044;29;20110;-86
2023/11/03 03:27:29;;;;;;;3.17;0.75;;;;;;;;;;5935747;29;20043;-84
2023/11/03 03:30:31;;;;;;;4.03;0.70;;;;;;;;;;5927635;29;20063;-84
2023/11/03 03:33:32;;;;;;;2.70;1.00;;;;;;;;;;5924781;29;20047;-83
2023/11/03 03:36:34;;;;;;;3.78;1.00;;;;;;;;;;5932328;29;20047;-83
2023/11/03 03:39:38;;;;;;;7.53;1.30;;;;;;;;;;5938191;29;20359;-84
2023/11/03 03:42:41;;;;;;;4.40;1.02;;;;;;;;;;5941713;29;20055;-83
2023/11/03 03:45:44;;;;;;;3.35;0.63;;;;;;;;;;5940582;29;20561;-84
2023/11/03 03:48:45;;;;;;;4.55;0.77;;;;;;;;;;5937684;29;20059;-83
2023/11/03 03:51:49;;;;;;;3.22;0.70;;;;;;;;;;5935455;29;20057;-85
2023/11/03 03:54:50;;;;;;;3.47;0.93;;;;;;;;;;5914751;29;20481;-84
2023/11/03 03:57:52;;;;;;;3.17;0.70;;;;;;;;;;5938802;29;20446;-84
2023/11/03 04:00:54;;;;;;;1.88;0.75;;;;;;;;;;5937646;29;20046;-85
2023/11/03 04:03:55;;;;;;;2.83;0.60;;;;;;;;;;5947372;29;20051;-84
2023/11/03 04:06:57;;;;;;;1.60;0.85;;;;;;;;;;5921775;29;20100;-82
2023/11/03 04:09:59;;;;;;;4.47;1.00;;;;;;;;;;5937154;29;20677;-83
2023/11/03 04:13:01;;;;;;;4.25;0.80;;;;;;;;;;5953020;29;20047;-85
2023/11/03 04:16:06;;;;;;;1.42;0.85;;;;;;;;;;5919351;29;20046;-84
2023/11/03 04:19:08;;;;;;;3.88;0.90;;;;;;;;;;5935811;29;20068;-85
2023/11/03 04:22:10;;;;;;;5.28;0.80;;;;;;;;;;5937612;29;20057;-82
2023/11/03 04:25:11;;;;;;;2.58;0.60;;;;;;;;;;5923118;29;20417;-84
2023/11/03 04:28:13;;;;;;;2.47;0.65;;;;;;;;;;5916494;29;20058;-84
2023/11/03 04:31:15;;;;;;;3.38;1.30;;;;;;;;;;5950729;29;20062;-85
2023/11/03 04:34:17;;;;;;;1.60;0.70;;;;;;;;;;5941818;29;20055;-84
2023/11/03 04:37:19;;;;;;;1.42;0.65;;;;;;;;;;5933512;29;20055;-85
2023/11/03 04:40:24;;;;;;;2.33;0.90;;;;;;;;;;5955359;29;20329;-84
2023/11/03 04:43:26;;;;;;;2.13;0.70;;;;;;;;;;5953322;29;20058;-84
2023/11/03 04:46:28;;;;;;;3.00;0.90;;;;;;;;;;5947945;29;20051;-84
2023/11/03 04:49:30;;;;;;;2.72;0.68;;;;;;;;;;5954520;29;20418;-85
2023/11/03 04:52:34;;;;;;;0.43;0.40;;;;;;;;;;5950207;29;20056;-85
2023/11/03 04:55:35;;;;;;;2.78;0.70;;;;;;;;;;5953347;29;20079;-84
2023/11/03 04:58:37;;;;;;;2.85;0.52;;;;;;;;;;5955276;29;20071;-84
2023/11/03 05:01:39;;;;;;;2.33;0.77;;;;;;;;;;5953707;29;20055;-85
2023/11/03 05:04:41;;;;;;;2.90;0.60;;;;;;;;;;5952096;29;20055;-84
2023/11/03 05:07:43;;;;;;;1.17;0.70;;;;;;;;;;5951895;29;20055;-85
2023/11/03 05:10:45;;;;;;;2.25;0.57;;;;;;;;;;5958147;29;20073;-85
2023/11/03 05:13:47;;;;;;;2.60;0.55;;;;;;;;;;5951612;29;20065;-85
2023/11/03 05:16:48;;;;;;;4.50;1.05;;;;;;;;;;5953567;29;20054;-84
2023/11/03 05:19:51;;;;;;;2.20;0.57;;;;;;;;;;5957995;29;20086;-84
2023/11/03 05:22:52;;;;;;;3.10;0.70;;;;;;;;;;5950904;29;20051;-84
2023/11/03 05:25:54;;;;;;;2.08;0.43;;;;;;;;;;5969179;29;20057;-84
2023/11/03 05:28:57;;;;;;;2.00;0.60;;;;;;;;;;5957186;29;20061;-83
2023/11/03 05:31:59;;;;;;;4.03;0.65;;;;;;;;;;5949238;29;20051;-85
2023/11/03 05:35:00;;;;;;;2.45;1.02;;;;;;;;;;5956122;29;20050;-84
2023/11/03 05:38:03;;;;;;;0.98;0.52;;;;;;;;;;5959507;29;20061;-84
2023/11/03 05:41:05;;;;;;;3.60;0.60;;;;;;;;;;5963509;29;20066;-85
2023/11/03 05:44:07;;;;;;;1.70;0.60;;;;;;;;;;5944763;29;20178;-84
2023/11/03 05:47:09;;;;;;;4.32;0.73;;;;;;;;;;5946940;29;20050;-85
2023/11/03 05:50:11;;;;;;;2.28;0.65;;;;;;;;;;5953672;29;20437;-85
2023/11/03 05:53:14;;;;;;;1.65;0.50;;;;;;;;;;5953181;29;20072;-85
2023/11/03 05:56:15;;;;;;;3.03;0.63;;;;;;;;;;5950840;29;20059;-85
2023/11/03 05:59:17;;;;;;;3.15;0.73;;;;;;;;;;5948791;29;20089;-85
2023/11/03 06:02:19;;;;;;;2.15;0.50;;;;;;;;;;5937193;29;20051;-85
2023/11/03 06:05:21;;;;;;;2.30;0.70;;;;;;;;;;5955057;29;20495;-84
2023/11/03 06:08:23;;;;;;;1.42;0.57;;;;;;;;;;5955920;29;20070;-84
2023/11/03 06:11:25;;;;;;;3.78;0.65;;;;;;;;;;5959388;29;20055;-84
2023/11/03 06:14:27;;;;;;;3.47;1.17;;;;;;;;;;5956291;29;20057;-86
2023/11/03 06:17:29;;;;;;;3.85;0.50;;;;;;;;;;5956107;29;20137;-84
2023/11/03 06:20:31;;;;;;;2.65;0.60;;;;;;;;;;5951651;29;20586;-87
2023/11/03 06:23:33;;;;;;;2.83;0.88;;;;;;;;;;5964243;29;20055;-84
2023/11/03 06:26:35;;;;;;;1.35;0.90;;;;;;;;;;5963324;29;20438;-83
2023/11/03 06:29:36;;;;;;;1.73;0.68;;;;;;;;;;5959333;29;20443;-86
2023/11/03 06:32:38;;;;;;;1.85;0.82;;;;;;;;;;5960162;29;20070;-84
2023/11/03 06:35:39;;;;;;;1.50;0.40;;;;;;;;;;5952953;29;20047;-86
2023/11/03 06:38:41;;;;;;;4.50;2.35;;;;;;;;;;5960857;29;20058;-85
2023/11/03 06:41:43;;;;;;;1.83;0.70;;;;;;;;;;5957793;29;20082;-85
2023/11/03 06:44:45;;;;;;;4.40;0.60;;;;;;;;;;5953497;29;20066;-86
2023/11/03 06:47:48;;;;;;;3.40;0.80;;;;;;;;;;5949967;29;20055;-85
2023/11/03 06:50:50;;;;;;;2.70;0.75;;;;;;;;;;5958292;29;20051;-88
2023/11/03 06:53:51;;;;;;;1.63;0.70;;;;;;;;;;5958818;29;20058;-84
2023/11/03 06:56:53;;;;;;;4.05;1.00;;;;;;;;;;5961064;29;20054;-85
2023/11/03 06:59:56;;;;;;;3.05;0.90;;;;;;;;;;5954267;29;20061;-85
2023/11/03 07:02:58;;;;;;;1.42;0.40;;;;;;;;;;5959230;29;20059;-84
2023/11/03 07:06:03;;;;;;;3.97;0.98;;;;;;;;;;5954874;29;20052;-84
2023/11/03 07:09:05;;;;;;;2.67;0.90;;;;;;;;;;5959809;29;20051;-85
2023/11/03 07:12:07;;;;;;;4.28;0.80;;;;;;;;;;5960193;29;20058;-84
2023/11/03 07:15:11;;;;;;;4.97;1.30;;;;;;;;;;5959281;29;20057;-84
2023/11/03 07:18:13;;;;;;;3.10;0.88;;;;;;;;;;5956924;29;20070;-84
2023/11/03 07:21:15;;;;;;;2.25;0.75;;;;;;;;;;5940976;29;20046;-84
2023/11/03 07:24:17;;;;;;;1.13;0.70;;;;;;;;;;5952660;29;20054;-83
2023/11/03 07:27:19;;;;;;;5.88;1.00;;;;;;;;;;5974728;29;20046;-84
2023/11/03 07:30:21;;;;;;;3.20;0.90;;;;;;;;;;5963360;29;20048;-83
2023/11/03 07:33:23;;;;;;;2.45;0.60;;;;;;;;;;5944879;29;20050;-83
2023/11/03 07:36:25;;;;;;;3.42;0.93;;;;;;;;;;5941079;29;20085;-85
2023/11/03 07:39:27;;;;;;;2.95;0.47;;;;;;;;;;5956897;29;20054;-85
2023/11/03 07:42:28;;;;;;;1.00;0.57;;;;;;;;;;5960340;29;20058;-87
2023/11/03 07:45:32;;;;;;;3.22;0.88;;;;;;;;;;5945637;29;20046;-84
2023/11/03 07:48:34;;;;;;;3.65;0.80;;;;;;;;;;5959819;29;20057;-86
2023/11/03 07:51:36;;;;;;;4.18;0.90;;;;;;;;;;5954502;29;20050;-85
2023/11/03 07:54:41;;;;;;;3.75;1.00;;;;;;;;;;5941042;29;20046;-84
2023/11/03 07:57:43;;;;;;;1.40;0.65;;;;;;;;;;5937559;29;20104;-86
2023/11/03 08:00:45;;;;;;;2.00;0.70;;;;;;;;;;5955491;29;20047;-85
2023/11/03 08:03:47;;;;;;;2.70;0.77;;;;;;;;;;5958297;29;20046;-84
2023/11/03 08:06:50;;;;;;;4.30;1.07;;;;;;;;;;5955568;29;20047;-87
2023/11/03 08:09:52;;;;;;;4.63;1.00;;;;;;;;;;5956357;29;20457;-85
2023/11/03 08:12:57;;;;;;;4.57;0.73;;;;;;;;;;5929827;29;20538;-85
2023/11/03 08:15:59;;;;;;;4.13;0.80;;;;;;;;;;5934654;29;20059;-84
2023/11/03 08:19:01;;;;;;;5.27;0.77;;;;;;;;;;5947891;29;20066;-84
2023/11/03 08:22:06;;;;;;;4.10;1.08;;;;;;;;;;5957782;29;20058;-86
2023/11/03 08:25:08;;;;;;;3.33;0.80;;;;;;;;;;5943138;29;20081;-85
2023/11/03 08:28:10;;;;;;;3.88;0.77;;;;;;;;;;5954827;29;20809;-87
2023/11/03 08:31:14;;;;;;;5.90;1.88;;;;;;;;;;5958947;29;20061;-87
2023/11/03 08:34:16;;;;;;;3.42;0.90;;;;;;;;;;5953081;29;20057;-84
2023/11/03 08:37:21;;;;;;;3.60;0.70;;;;;;;;;;5956016;29;20161;-84
2023/11/03 08:40:24;;;;;;;2.00;0.90;;;;;;;;;;5957527;29;20395;-84
2023/11/03 08:43:26;;;;;;;4.70;1.10;;;;;;;;;;5967385;29;20065;-85
2023/11/03 08:46:27;;;;;;;5.78;0.90;;;;;;;;;;5952817;29;20061;-84
2023/11/03 08:49:30;;;;;;;2.55;0.75;;;;;;;;;;5955602;29;20050;-85
2023/11/03 08:52:33;;;;;;;2.67;1.00;;;;;;;;;;5952505;29;20051;-83
2023/11/03 08:55:34;;;;;;;4.30;0.82;;;;;;;;;;5956129;29;20135;-84
2023/11/03 08:58:39;;;;;;;4.78;0.90;;;;;;;;;;5974273;29;20081;-87
2023/11/03 09:01:44;;;;;;;4.70;0.70;;;;;;;;;;5962411;29;20074;-87
2023/11/03 09:04:46;;;;;;;2.70;0.80;;;;;;;;;;5936636;29;20058;-84
2023/11/03 09:07:48;;;;;;;4.82;0.80;;;;;;;;;;5949143;29;20051;-86
2023/11/03 09:10:52;;;;;;;5.13;1.20;;;;;;;;;;5956156;29;20081;-86
2023/11/03 09:13:55;;;;;;;6.20;1.42;;;;;;;;;;5941633;29;20047;-85
2023/11/03 09:16:56;;;;;;;5.38;0.90;;;;;;;;;;5959050;29;20062;-85
2023/11/03 09:19:58;;;;;;;2.55;0.80;;;;;;;;;;5942702;29;20047;-86
2023/11/03 09:23:00;;;;;;;4.28;0.80;;;;;;;;;;5954251;29;20050;-85
2023/11/03 09:26:04;;;;;;;2.45;0.80;;;;;;;;;;5941230;29;20054;-84
2023/11/03 09:29:05;;;;;;;3.72;0.80;;;;;;;;;;5957332;29;20094;-86
2023/11/03 09:32:09;;;;;;;4.97;1.30;;;;;;;;;;5968447;29;20070;-86
2023/11/03 09:35:11;;;;;;;3.55;1.00;;;;;;;;;;5950269;29;20103;-83
2023/11/03 09:38:19;;;;;;;4.18;0.70;;;;;;;;;;5950774;29;20062;-85
2023/11/03 09:41:21;;;;;;;5.55;1.00;;;;;;;;;;5968852;29;20081;-84
2023/11/03 09:44:22;;;;;;;4.95;0.60;;;;;;;;;;5971547;29;20047;-86
2023/11/03 09:47:25;;;;;;;3.92;1.00;;;;;;;;;;5947832;29;20133;-84
2023/11/03 09:50:27;;;;;;;3.90;0.98;;;;;;;;;;5944454;29;20038;-84
2023/11/03 09:53:30;;;;;;;2.65;1.10;;;;;;;;;;5938391;29;20070;-86
2023/11/03 09:56:33;;;;;;;3.88;0.80;;;;;;;;;;5947494;29;20061;-84
2023/11/03 09:59:35;;;;;;;;;;;;;;;;;;5958247;29;20061;-84
2023/11/03 10:02:37;;;;;;;5.38;1.00;;;;;;;;;;5951868;29;19929;-85
2023/11/03 10:05:39;;;;;;;3.35;0.93;;;;;;;;;;5955993;29;20134;-84
2023/11/03 10:08:44;;;;;;;2.88;1.02;;;;;;;;;;5968180;29;20047;-87
2023/11/03 10:11:46;;;;;;;3.47;0.65;;;;;;;;;;5965366;29;20055;-86
2023/11/03 10:14:48;;;;;;;6.70;1.85;;;;;;;;;;5956668;29;20100;-86
2023/11/03 10:17:50;;;;;;;5.38;0.98;;;;;;;;;;5972117;29;20058;-84
2023/11/03 10:20:56;;;;;;;5.10;0.90;;;;;;;;;;5944666;29;20049;-85
2023/11/03 10:23:58;;;;;;;4.43;0.95;;;;;;;;;;5958131;29;20043;-84
2023/11/03 10:27:00;;;;;;;2.83;0.93;;;;;;;;;;5953878;29;20074;-83
2023/11/03 10:30:05;;;;;;;3.17;1.00;;;;;;;;;;5959591;29;20047;-85
2023/11/03 10:33:07;;;;;;;5.05;1.30;;;;;;;;;;5959130;29;20059;-84
2023/11/03 10:36:10;;;;;;;3.70;0.90;;;;;;;;;;5967041;29;20497;-84
2023/11/03 10:39:12;;;;;;;4.05;0.98;;;;;;;;;;5953652;29;20054;-85
2023/11/03 10:42:17;;;;;;;5.18;1.58;;;;;;;;;;5957053;29;20116;-85
2023/11/03 10:45:20;;;;;;;4.88;1.05;;;;;;;;;;5945518;29;20062;-86
2023/11/03 10:48:34;;;;;;;4.75;0.80;;;;;;;;;;5934107;29;20077;-85
2023/11/03 10:51:39;;;;;;;3.53;1.00;;;;;;;;;;5958783;29;20452;-86
2023/11/03 10:55:04;;;;;;;4.45;1.08;;;;;;;;;;5961954;29;20514;-83
2023/11/03 10:58:07;;;;;;;2.88;0.70;;;;;;;;;;5957664;29;20066;-84
2023/11/03 11:01:19;;;;;;;3.97;0.82;;;;;;;;;;5955669;29;20076;-84
2023/11/03 11:04:47;;;;;;;4.60;0.80;;;;;;;;;;5956859;29;20050;-84
2023/11/03 11:07:56;;;;;;;3.92;0.90;;;;;;;;;;5944082;29;20061;-84
2023/11/03 11:10:59;;;;;;;4.85;1.10;;;;;;;;;;5947511;29;20126;-85
2023/11/03 11:14:35;;;;;;;5.30;1.05;;;;;;;;;;5961294;29;20063;-85
2023/11/03 11:17:37;;;;;;;4.10;0.70;;;;;;;;;;5938587;29;20043;-84
2023/11/03 11:20:39;;;;;;;4.43;0.63;;;;;;;;;;5950711;29;20051;-85
2023/11/03 11:23:44;;;;;;;6.32;0.73;;;;;;;;;;5954410;29;20065;-85
2023/11/03 11:26:49;;;;;;;4.10;0.55;;;;;;;;;;5959816;29;20058;-85
2023/11/03 11:30:23;;;;;;;5.40;0.82;;;;;;;;;;5938704;29;20131;-86
2023/11/03 11:33:28;;;;;;;3.65;0.70;;;;;;;;;;5948108;29;20132;-84
2023/11/03 11:36:33;;;;;;;1.25;0.43;;;;;;;;;;5956906;29;20058;-84
2023/11/03 11:39:35;;;;;;;2.88;0.68;;;;;;;;;;5968888;29;20078;-83
2023/11/03 11:42:42;;;;;;;4.63;0.85;;;;;;;;;;5957324;29;20047;-85
2023/11/03 11:45:45;;;;;;;2.10;0.50;;;;;;;;;;5958187;29;20587;-86
2023/11/03 11:48:49;;;;;;;1.13;0.57;;;;;;;;;;5964451;29;20396;-84
2023/11/03 11:51:53;;;;;;;4.20;0.90;;;;;;;;;;5957223;29;20118;-84
2023/11/03 11:54:57;;;;;;;4.00;1.00;;;;;;;;;;5939645;29;20126;-84
2023/11/03 11:57:59;;;;;;;1.73;0.98;;;;;;;;;;5953122;29;20058;-84
2023/11/03 12:01:03;;;;;;;6.00;1.33;;;;;;;;;;5960215;29;20054;-83
2023/11/03 12:04:05;;;;;;;3.00;0.70;;;;;;;;;;5955690;29;20679;-84
2023/11/03 12:07:08;;;;;;;3.58;0.60;;;;;;;;;;5959019;29;20694;-84
2023/11/03 12:10:09;;;;;;;2.95;0.80;;;;;;;;;;5958625;29;20050;-84
2023/11/03 12:13:12;;;;;;;4.22;0.80;;;;;;;;;;5956941;29;20063;-84
2023/11/03 12:16:14;;;;;;;3.13;0.70;;;;;;;;;;5941596;29;20062;-84
2023/11/03 12:19:16;;;;;;;5.68;0.85;;;;;;;;;;5958791;29;20055;-84
2023/11/03 12:22:23;;;;;;;2.90;0.73;;;;;;;;;;5953740;29;20121;-84
2023/11/03 12:25:25;;;;;;;3.40;0.93;;;;;;;;;;5952617;29;20069;-82
2023/11/03 12:28:30;;;;;;;6.20;0.80;;;;;;;;;;5950664;29;20068;-82
2023/11/03 12:31:32;;;;;;;2.22;0.52;;;;;;;;;;5953857;29;20062;-82
2023/11/03 12:34:35;;;;;;;2.35;0.85;;;;;;;;;;5955988;29;20047;-83
2023/11/03 12:37:42;;;;;;;5.03;0.80;;;;;;;;;;5952318;29;20047;-83
2023/11/03 12:40:46;;;;;;;2.60;0.80;;;;;;;;;;5936712;29;20114;-83
2023/11/03 12:43:48;;;;;;;3.58;0.93;;;;;;;;;;5945023;29;20058;-83
2023/11/03 12:46:51;;;;;;;3.60;0.90;;;;;;;;;;5951886;29;20072;-83
2023/11/03 12:50:19;;;;;;;1.83;0.57;;;;;;;;;;5949439;29;20570;-83
2023/11/03 12:53:23;;;;;;;3.78;0.90;;;;;;;;;;5950987;29;20062;-83
2023/11/03 12:56:24;;;;;;;3.80;1.05;;;;;;;;;;5947540;29;20057;-83
2023/11/03 12:59:27;;;;;;;2.55;0.80;;;;;;;;;;5944833;29;20055;-83
2023/11/03 13:02:29;;;;;;;2.10;0.60;;;;;;;;;;5952671;29;20061;-82
2023/11/03 13:05:30;;;;;;;4.47;0.73;;;;;;;;;;5952248;29;20138;-82
2023/11/03 13:08:32;;;;;;;3.80;0.77;;;;;;;;;;5951221;29;20740;-83
2023/11/03 13:11:37;;;;;;;4.78;0.95;;;;;;;;;;5948291;29;20146;-81
2023/11/03 13:14:43;;;;;;;3.13;1.05;;;;;;;;;;5952893;29;20055;-83
2023/11/03 13:17:46;;;;;;;6.28;0.80;;;;;;;;;;5947274;29;20066;-83
2023/11/03 13:20:47;;;;;;;2.85;0.85;;;;;;;;;;5953753;29;20059;-82
2023/11/03 13:23:51;;;;;;;3.05;0.85;;;;;;;;;;5944784;29;20802;-83
2023/11/03 13:26:53;;;;;;;5.05;0.98;;;;;;;;;;5949520;29;20054;-83
2023/11/03 13:29:58;;;;;;;2.30;0.82;;;;;;;;;;5951150;29;20046;-81
2023/11/03 13:33:00;;;;;;;5.20;0.98;;;;;;;;;;5932978;29;20447;-81
2023/11/03 13:36:04;;;;;;;5.03;1.17;;;;;;;;;;5947406;29;20055;-81
2023/11/03 13:39:06;;;;;;;3.42;0.90;;;;;;;;;;5938544;29;20408;-82
2023/11/03 13:42:09;;;;;;;5.88;0.95;;;;;;;;;;5945872;29;20058;-82
2023/11/03 13:45:11;;;;;;;4.10;0.98;;;;;;;;;;5950666;29;20069;-82
2023/11/03 13:48:13;;;;;;;4.88;1.00;;;;;;;;;;5941075;29;20567;-82
2023/11/03 13:51:15;;;;;;;3.10;0.70;;;;;;;;;;5946425;29;20062;-81
2023/11/03 13:54:17;;;;;;;4.20;0.80;;;;;;;;;;5946299;29;20067;-82
2023/11/03 13:57:18;;;;;;;4.72;0.80;;;;;;;;;;5948499;29;20054;-81
2023/11/03 14:00:21;;;;;;;3.67;0.82;;;;;;;;;;5946622;29;20055;-83
2023/11/03 14:03:24;;;;;;;4.03;0.70;;;;;;;;;;5950098;29;20070;-82
2023/11/03 14:06:27;;;;;;;;;;;;;;;;;;5957059;29;20051;-82
2023/11/03 14:09:29;;;;;;;4.05;0.60;;;;;;;;;;5955683;29;19928;-81
2023/11/03 14:12:31;;;;;;;2.90;0.90;;;;;;;;;;5954799;29;20047;-81
2023/11/03 14:15:34;;;;;;;5.15;0.90;;;;;;;;;;5951296;29;20039;-83
2023/11/03 14:18:36;;;;;;;3.83;0.73;;;;;;;;;;5947148;29;20048;-81
2023/11/03 14:21:41;;;;;;;5.80;1.10;;;;;;;;;;5947297;29;20114;-83
2023/11/03 14:24:43;;;;;;;4.60;1.08;;;;;;;;;;5949824;29;20054;-80
2023/11/03 14:27:45;;;;;;;5.68;1.17;;;;;;;;;;5953003;29;20043;-81
2023/11/03 14:30:48;;;;;;;5.28;1.10;;;;;;;;;;5954036;29;20043;-82
2023/11/03 14:33:51;;;;;;;4.25;0.90;;;;;;;;;;5953925;29;20047;-81
2023/11/03 14:36:53;;;;;;;5.65;0.90;;;;;;;;;;5954034;29;20051;-82
2023/11/03 14:39:59;;;;;;;5.13;1.02;;;;;;;;;;5952688;29;20054;-82
2023/11/03 14:43:01;;;;;;;4.15;1.25;;;;;;;;;;5937385;29;20051;-83
2023/11/03 14:46:05;;;;;;;3.78;0.70;;;;;;;;;;5954071;29;20059;-83
2023/11/03 14:49:09;;;;;;;4.00;1.00;;;;;;;;;;5954314;29;20062;-82
2023/11/03 14:52:12;;;;;;;4.90;0.88;;;;;;;;;;5972113;29;20057;-83
2023/11/03 14:55:17;;;;;;;6.00;1.80;;;;;;;;;;5956160;29;20046;-82
2023/11/03 14:58:19;;;;;;;4.05;0.80;;;;;;;;;;5939866;29;20047;-83
2023/11/03 15:01:22;;;;;;;5.93;1.10;;;;;;;;;;5944493;29;20157;-82
2023/11/03 15:04:25;;;;;;;6.85;2.30;;;;;;;;;;5956582;29;20698;-82
2023/11/03 15:07:27;;;;;;;3.30;1.50;;;;;;;;;;5953687;29;20062;-82
2023/11/03 15:10:30;;;;;;;4.32;0.98;;;;;;;;;;5958826;29;20075;-82
2023/11/03 15:13:32;;;;;;;3.40;1.17;;;;;;;;;;5957701;29;20055;-82
2023/11/03 15:16:34;;;;;;;8.57;1.80;;;;;;;;;;5929941;29;20609;-83
2023/11/03 15:19:39;;;;;;;8.43;1.60;;;;;;;;;;5955151;29;20063;-84
2023/11/03 15:22:41;;;;;;;5.57;1.15;;;;;;;;;;5931830;29;20093;-83
2023/11/03 15:25:43;;;;;;;5.07;1.50;;;;;;;;;;5943093;29;20095;-82
2023/11/03 15:28:45;;;;;;;14.40;7.47;;;;;;;;;;5945463;29;20061;-83
2023/11/03 15:31:46;;;;;;;5.47;1.88;;;;;;;;;;5943196;29;20047;-83
2023/11/03 15:34:49;;;;;;;4.35;1.20;;;;;;;;;;5943571;29;20858;-83
2023/11/03 15:37:51;;;;;;;5.82;1.40;;;;;;;;;;5948993;29;20457;-84
2023/11/03 15:40:52;;;;;;;3.55;1.45;;;;;;;;;;5951038;29;20054;-82
2023/11/03 15:43:54;;;;;;;4.18;1.30;;;;;;;;;;5957477;29;20051;-82
2023/11/03 15:46:56;;;;;;;6.80;1.77;;;;;;;;;;5941100;29;20146;-81
2023/11/03 15:49:57;;;;;;;5.18;1.73;;;;;;;;;;5952833;29;20047;-83
2023/11/03 15:52:59;;;;;;;7.18;1.42;;;;;;;;;;5946521;29;20051;-83
2023/11/03 15:56:01;;;;;;;4.80;1.25;;;;;;;;;;5951747;29;20059;-82
2023/11/03 15:59:03;;;;;;;4.57;1.25;;;;;;;;;;5944614;29;20050;-83
2023/11/03 16:02:05;;;;;;;6.45;1.38;;;;;;;;;;5955410;29;20067;-83
2023/11/03 16:05:09;;;;;;;5.40;1.50;;;;;;;;;;5950643;29;20362;-83
2023/11/03 16:08:11;;;;;;;5.25;1.20;;;;;;;;;;5951184;29;20435;-83
2023/11/03 16:11:15;;;;;;;6.93;1.75;;;;;;;;;;5949089;29;20080;-83
2023/11/03 16:14:17;;;;;;;4.40;1.20;;;;;;;;;;5955564;29;20058;-85
2023/11/03 16:17:18;;;;;;;6.65;2.42;;;;;;;;;;5943810;29;20507;-85
2023/11/03 16:20:20;;;;;;;7.53;2.00;;;;;;;;;;5952994;29;20054;-85
2023/11/03 16:23:22;;;;;;;4.20;2.00;;;;;;;;;;5952498;29;20043;-87
2023/11/03 16:26:24;;;;;;;5.30;2.10;;;;;;;;;;5966928;29;20132;-84
2023/11/03 16:29:25;;;;;;;5.15;2.28;;;;;;;;;;5939803;29;20509;-84
2023/11/03 16:32:27;;;;;;;7.88;2.00;;;;;;;;;;5953040;29;20066;-85
2023/11/03 16:35:31;;;;;;;7.18;2.10;;;;;;;;;;5941039;29;21246;-85
2023/11/03 16:38:33;;;;;;;5.97;1.48;;;;;;;;;;5970346;29;20065;-87
2023/11/03 16:41:35;;;;;;;3.40;1.15;;;;;;;;;;5954835;29;20055;-84
2023/11/03 16:44:36;;;;;;;3.75;1.58;;;;;;;;;;5939245;29;20065;-84
2023/11/03 16:47:39;;;;;;;7.07;1.55;;;;;;;;;;5950998;29;20055;-83
2023/11/03 16:50:41;;;;;;;5.57;1.92;;;;;;;;;;5957087;29;20537;-81
2023/11/03 16:53:42;;;;;;;4.13;1.58;;;;;;;;;;5955886;29;20058;-83
2023/11/03 16:56:44;;;;;;;7.13;1.88;;;;;;;;;;5955606;29;20550;-83
2023/11/03 16:59:46;;;;;;;8.13;1.98;;;;;;;;;;5956777;29;20071;-85
2023/11/03 17:02:48;;;;;;;10.23;1.73;;;;;;;;;;5954581;29;20055;-86
2023/11/03 17:05:53;;;;;;;7.50;2.13;;;;;;;;;;5965405;29;20134;-84
2023/11/03 17:08:55;;;;;;;2.72;1.40;;;;;;;;;;5952274;29;20067;-81
2023/11/03 17:11:56;;;;;;;5.45;1.65;;;;;;;;;;5961163;29;20426;-80
2023/11/03 17:14:58;;;;;;;10.75;2.28;;;;;;;;;;5948492;29;20206;-82
2023/11/03 17:18:00;;;;;;;5.95;1.63;;;;;;;;;;5939426;29;20062;-82
2023/11/03 17:21:05;;;;;;;6.63;1.65;;;;;;;;;;5960531;29;20050;-82
2023/11/03 17:24:08;;;;;;;7.28;1.90;;;;;;;;;;5957841;29;20062;-80
2023/11/03 17:27:10;;;;;;;8.10;2.00;;;;;;;;;;5958406;29;20110;-82
2023/11/03 17:30:15;;;;;;;9.32;1.90;;;;;;;;;;5959460;29;20569;-83
2023/11/03 17:33:18;;;;;;;6.85;1.80;;;;;;;;;;5954876;29;20054;-84
2023/11/03 17:36:20;;;;;;;6.90;1.88;;;;;;;;;;5955898;29;20058;-83
2023/11/03 17:39:27;;;;;;;4.38;1.40;;;;;;;;;;5956594;29;20051;-82
2023/11/03 17:42:29;;;;;;;4.00;1.48;;;;;;;;;;5960683;29;20051;-83
2023/11/03 17:45:30;;;;;;;5.57;1.70;;;;;;;;;;5955615;29;20363;-82
2023/11/03 17:48:33;;;;;;;9.32;2.00;;;;;;;;;;5957836;29;20055;-84
2023/11/03 17:51:39;;;;;;;;;;;;;;;;;;5948748;29;20054;-84
2023/11/03 17:54:41;;;;;;;8.40;2.05;;;;;;;;;;5958348;29;19929;-82
2023/11/03 17:57:45;;;;;;;3.85;1.30;;;;;;;;;;5953457;29;20050;-81
2023/11/03 18:00:48;;;;;;;7.97;1.58;;;;;;;;;;5950113;29;20047;-82
2023/11/03 18:03:50;;;;;;;4.95;1.20;;;;;;;;;;5958790;29;20148;-81
2023/11/03 18:06:54;;;;;;;4.53;1.02;;;;;;;;;;5955663;29;20192;-83
2023/11/03 18:09:57;;;;;;;3.22;1.25;;;;;;;;;;5945909;29;20149;-80
2023/11/03 18:12:58;;;;;;;3.08;1.20;;;;;;;;;;5951240;29;20054;-79
2023/11/03 18:16:00;;;;;;;4.50;1.33;;;;;;;;;;5939438;29;20161;-81